Map

Track Data

SID SEASON NUMBER BASIN SUBBASIN NAME ISO_TIME NATURE LAT LON WMO_WIND WMO_PRES WMO_AGENCY TRACK_TYPE DIST2LAND LANDFALL IFLAG USA_AGENCY USA_ATCF_ID USA_LAT USA_LON USA_RECORD USA_STATUS USA_WIND USA_PRES USA_SSHS USA_R34_NE USA_R34_SE USA_R34_SW USA_R34_NW USA_R50_NE USA_R50_SE USA_R50_SW USA_R50_NW USA_R64_NE USA_R64_SE USA_R64_SW USA_R64_NW USA_POCI USA_ROCI USA_RMW USA_EYE TOKYO_LAT TOKYO_LON TOKYO_GRADE TOKYO_WIND TOKYO_PRES TOKYO_R50_DIR TOKYO_R50_LONG TOKYO_R50_SHORT TOKYO_R30_DIR TOKYO_R30_LONG TOKYO_R30_SHORT TOKYO_LAND CMA_LAT CMA_LON CMA_CAT CMA_WIND CMA_PRES HKO_LAT HKO_LON HKO_CAT HKO_WIND HKO_PRES NEWDELHI_LAT NEWDELHI_LON NEWDELHI_GRADE NEWDELHI_WIND NEWDELHI_PRES NEWDELHI_CI NEWDELHI_DP NEWDELHI_POCI REUNION_LAT REUNION_LON REUNION_TYPE REUNION_WIND REUNION_PRES REUNION_TNUM REUNION_CI REUNION_RMW REUNION_R34_NE REUNION_R34_SE REUNION_R34_SW REUNION_R34_NW REUNION_R50_NE REUNION_R50_SE REUNION_R50_SW REUNION_R50_NW REUNION_R64_NE REUNION_R64_SE REUNION_R64_SW REUNION_R64_NW BOM_LAT BOM_LON BOM_TYPE BOM_WIND BOM_PRES BOM_TNUM BOM_CI BOM_RMW BOM_R34_NE BOM_R34_SE BOM_R34_SW BOM_R34_NW BOM_R50_NE BOM_R50_SE BOM_R50_SW BOM_R50_NW BOM_R64_NE BOM_R64_SE BOM_R64_SW BOM_R64_NW BOM_ROCI BOM_POCI BOM_EYE BOM_POS_METHOD BOM_PRES_METHOD NADI_LAT NADI_LON NADI_CAT NADI_WIND NADI_PRES WELLINGTON_LAT WELLINGTON_LON WELLINGTON_WIND WELLINGTON_PRES DS824_LAT DS824_LON DS824_STAGE DS824_WIND DS824_PRES TD9636_LAT TD9636_LON TD9636_STAGE TD9636_WIND TD9636_PRES TD9635_LAT TD9635_LON TD9635_WIND TD9635_PRES TD9635_ROCI NEUMANN_LAT NEUMANN_LON NEUMANN_CLASS NEUMANN_WIND NEUMANN_PRES MLC_LAT MLC_LON MLC_CLASS MLC_WIND MLC_PRES USA_GUST BOM_GUST BOM_GUST_PER REUNION_GUST REUNION_GUST_PER USA_SEAHGT USA_SEARAD_NE USA_SEARAD_SE USA_SEARAD_SW USA_SEARAD_NW STORM_SPEED STORM_DIR
1975217N20126 1975 67 WP MM NOT_NAMED 1975-08-05 00:00:00 TS 19.7000 126.300 main 444 438 O________OOO__ jtwc_wp WP051975 19.7000 126.300 25 -1 19.7000 126.300 TC 25 19.7000 126.300 1 25 19.7000 126.300 25 1002 120 6 336
1975217N20126 1975 67 WP MM NOT_NAMED 1975-08-05 03:00:00 TS 19.9562 126.182 main 446 437 P________PPP__ WP051975 19.9525 126.188 25 -1 19.9525 126.188 TC 25 19.9672 126.165 1 25 19.9525 126.188 25 1001 120 5 339
1975217N20126 1975 67 WP MM NOT_NAMED 1975-08-05 06:00:00 TS 20.2069 126.091 main 446 446 O________OPO__ jtwc_wp WP051975 20.2000 126.100 25 -1 20.2000 126.100 TC 25 20.2275 126.063 1 25 20.2000 126.100 25 1000 120 5 346
1975217N20126 1975 67 WP MM NOT_NAMED 1975-08-05 09:00:00 TS 20.4504 126.054 main 462 462 P________PPP__ WP051975 20.4425 126.063 25 -1 20.4425 126.063 TC 25 20.4741 126.030 1 25 20.4425 126.063 25 999 150 5 0
1975217N20126 1975 67 WP MM NOT_NAMED 1975-08-05 12:00:00 TS 20.7000 126.100 main 474 474 O________OOO__ jtwc_wp WP051975 20.7000 126.100 25 -1 20.7000 126.100 TC 25 20.7000 126.100 1 25 20.7000 126.100 25 998 180 5 19
1975217N20126 1975 67 WP MM NOT_NAMED 1975-08-05 15:00:00 TS 20.9663 126.247 main 501 501 P________PPP__ WP051975 20.9850 126.235 25 -1 20.9850 126.235 TC 25 20.9099 126.285 1 25 20.9850 126.235 25 998 180 6 28
1975217N20126 1975 67 WP MM NOT_NAMED 1975-08-05 18:00:00 TS 21.2636 126.425 main 537 537 O________OPO__ jtwc_wp WP051975 21.3000 126.400 25 -1 21.3000 126.400 TC 25 21.1545 126.501 1 25 21.3000 126.400 25 998 180 6 32
1975217N20126 1975 67 WP MM NOT_NAMED 1975-08-05 21:00:00 TS 21.5103 126.613 main 563 547 P________PPP__ WP051975 21.5148 126.603 25 -1 21.5148 126.603 TC 25 21.4968 126.642 1 25 21.5148 126.603 25 998 210 8 12
1975217N20126 1975 67 WP MM NOT_NAMED 1975-08-06 00:00:00 TS 22.0000 126.600 main 547 468 O________OOO__ jtwc_wp WP051975 22.0000 126.600 25 -1 22.0000 126.600 TC 25 22.0000 126.600 1 25 22.0000 126.600 25 998 240 16 346
1975217N20126 1975 67 WP MM NOT_NAMED 1975-08-06 03:00:00 TS 23.0742 126.182 main 464 362 P________PPP__ WP051975 23.1629 126.158 27 -1 23.1629 126.158 TC 27 22.8082 126.256 1 25 23.1629 126.158 27 998 240 26 336
1975217N20126 1975 67 WP MM NOT_NAMED 1975-08-06 06:00:00 TS 24.3267 125.462 main 362 282 O_O______OPO__ jtwc_wp WP051975 24.4000 125.500 30 -1 25.7000 124.000 0 19 997 24.4000 125.500 TC 30 23.7634 125.713 1 25 24.4000 125.500 30 998 240 24 328
1975217N20126 1975 67 WP MM NOT_NAMED 1975-08-06 09:00:00 TS 25.1068 124.798 main 282 230 P_P______PPP__ WP051975 25.1045 124.921 27 -1 25.8603 123.580 0 21 997 25.1045 124.921 TC 27 24.7366 125.037 1 25 25.1045 124.921 27 998 240 18 318
1975217N20126 1975 67 WP MM NOT_NAMED 1975-08-06 12:00:00 TS 25.6632 124.126 main 224 194 O_O______OOO__ jtwc_wp WP051975 25.6000 124.300 25 -1 26.0000 123.200 1 23 997 25.6000 124.300 TC 25 25.6000 124.300 1 25 25.6000 124.300 25 998 240 16 311
1975217N20126 1975 67 WP MM NOT_NAMED 1975-08-06 15:00:00 TS 26.1509 123.463 main 201 185 P_P______PPP__ WP051975 26.1297 123.622 22 -1 26.1073 122.885 1 23 997 26.1297 123.622 TC 22 26.2580 123.563 1 23 26.1297 123.622 22 998 210 15 306
1975217N20126 1975 67 WP MM NOT_NAMED 1975-08-06 18:00:00 TS 26.5260 122.813 main 185 167 O_O______OPO__ jtwc_wp WP051975 26.6000 122.900 20 -1 26.2000 122.600 1 23 997 26.6000 122.900 TC 20 26.7386 122.836 1 22 26.6000 122.900 20 998 180 13 300
1975217N20126 1975 67 WP MM NOT_NAMED 1975-08-06 21:00:00 TS 26.7936 122.207 main 167 119 P_P______PPP__ WP051975 27.0158 122.156 20 -1 26.3072 122.330 1 26 997 27.0158 122.156 TC 20 27.0999 122.117 1 21 27.0158 122.156 20 998 150 11 291
1975217N20126 1975 67 WP MM NOT_NAMED 1975-08-07 00:00:00 TS 26.9000 121.700 main 119 117 O_O______OOO__ jtwc_wp WP051975 27.4000 121.400 20 -1 26.4000 122.000 1 29 997 27.4000 121.400 TC 20 27.4000 121.400 1 20 27.4000 121.400 20 998 120 7 241
1975217N20126 1975 67 WP MM NOT_NAMED 1975-08-07 03:00:00 TS 26.4723 121.553 main 134 89 __P___________ WP051975 -1 26.4723 121.553 1 29 996 TC 1 7 237
1975217N20126 1975 67 WP MM NOT_NAMED 1975-08-07 06:00:00 TS 26.5000 121.000 main 89 31 __O___________ -1 26.5000 121.000 1 29 996 1 11 270
1975217N20126 1975 67 WP MM NOT_NAMED 1975-08-07 09:00:00 TS 26.4682 120.370 main 31 0 __P___________ -1 26.4682 120.370 1 26 996 1 12 265
1975217N20126 1975 67 WP MM NOT_NAMED 1975-08-07 12:00:00 TS 26.4000 119.700 main 9 __O___________ -1 26.4000 119.700 1 23 996 12 264

Digital Typhoon Data and Search

About IBTrACS Database

This database is a web-friendly format of International Best Track Archive for Climate Stewardship (IBTrACS), a global best track data archive curated by NOAA dating back to 1842.

Updated: 2021-11-26